ADDS METAR Data INFO
IDs: Format: Raw Decoded Include TAF

Data at: 1810 UTC 14 Aug 2018

PAGL 141756Z AUTO 35012KT 10SM 08/03 A2974 RMK AO2 SLP066 T00780028 10094 20050 51011 $
PAGL 141656Z AUTO 34011G16KT 10SM 07/03 A2973 RMK AO2 SLP065 T00670028 $
PAGL 141456Z AUTO 35011KT 10SM 05/02 A2970 RMK AO2 SLP056 T00500022 51014 $
PAGL 141356Z AUTO 34009KT 10SM 07/03 A2969 RMK AO2 SLP052 T00720033 $
PAGL 141156Z AUTO 34013G19KT 10SM 09/06 A2966 RMK AO2 SLP041 60000 T00940061 10144 20089 53012 $
PAGL 141056Z AUTO VRB03KT 10SM 09/07 A2965 RMK AO2 SLP037 T00890067 $
PAGL 140856Z AUTO 35007KT 10SM 12/08 A2963 RMK AO2 SLP029 60000 T01170083 401610117 53017 $
PAGL 140156Z AUTO 08006KT 10SM 16/11 A2950 RMK AO2 SLP988 T01560106 $
PAGL 132056Z AUTO 05009KT 10SM 15/10 A2941 RMK AO2 SLP956 T01500100 51021 $
PAGL 131756Z AUTO 07013KT 10SM 13/11 A2935 RMK AO2 RAE07 SLP935 P0000 60000 T01330106 10133 20122 51012 $
PAGL 131656Z AUTO 08012KT 9SM -RA 13/11 A2934 RMK AO2 RAB43 SLP933 P0000 T01280111 $
PAGL 131256Z AUTO 08010KT 10SM 13/11 A2929 RMK AO2 SLP917 T01280111 $
PAGL 131056Z AUTO 07013KT 10SM 13/11 A2927 RMK AO2 RAE36 SLP909 P0000 T01330111 $
PAGL 130956Z AUTO 05012KT 5SM RA BR 13/12 A2927 RMK AO2 SLP909 P0003 T01280117 $
PAGL 130856Z AUTO 07013KT 5SM -RA BR 13/12 A2926 RMK AO2 RAE29B48 SLP906 P0001 60002 T01330122 401500122 53011 $
PAGL 130756Z AUTO 07011G14KT 9SM -RA 13/12 A2925 RMK AO2 SLP902 P0000 T01280117 $